Time;durP1;ratioP1;P1;durP2;ratioP2;P2;SDS_P1;SDS_P2;PMS_P1;PMS_P2;Temp;Humidity;BMP_temperature;BMP_pressure;BME280_temperature;BME280_humidity;BME280_pressure;Samples;Min_cycle;Max_cycle;Signal;HPM_P1;HPM_P2
2023/04/15 07:23:17;;;;;;;14.48;11.18;;;;;;;-145.79;63.68;77922.06;5265503;28;20403;-71
2023/04/15 07:25:49;;;;;;;13.75;10.55;;;;;;;-145.79;64.49;77905.09;5258571;28;20037;-72
2023/04/15 07:28:20;;;;;;;11.40;10.30;;;;;;;-145.79;64.30;77886.00;5250720;28;20021;-72
2023/04/15 07:30:52;;;;;;;13.43;10.82;;;;;;;-145.79;63.55;77894.50;5237710;28;20028;-72
2023/04/15 07:33:23;;;;;;;12.25;9.88;;;;;;;-145.79;63.04;77883.91;5243335;28;20468;-74
2023/04/15 07:35:54;;;;;;;12.07;10.75;;;;;;;-145.79;63.19;77871.19;5257935;28;20105;-74
2023/04/15 07:38:25;;;;;;;10.48;9.25;;;;;;;-145.79;62.28;77860.56;5258041;28;20116;-74
2023/04/15 07:40:57;;;;;;;17.33;15.57;;;;;;;-145.79;62.11;77860.56;5258073;28;20109;-73
2023/04/15 07:43:29;;;;;;;10.25;9.25;;;;;;;-145.79;61.51;77849.97;5257560;28;20134;-73
2023/04/15 07:46:00;;;;;;;9.52;8.40;;;;;;;-145.79;60.14;77847.84;5258351;28;20031;-73
2023/04/15 07:48:31;;;;;;;9.80;8.80;;;;;;;-145.79;60.51;77841.50;5257546;28;20053;-73
2023/04/15 07:51:03;;;;;;;8.82;8.00;;;;;;;-145.79;59.79;77839.38;5257596;28;20037;-73
2023/04/15 08:14:31;;;;;;;8.32;7.43;;;;;;;-145.79;57.77;77769.44;5273587;28;20123;-73
2023/04/15 08:17:03;;;;;;;7.85;7.10;;;;;;;-145.79;58.29;77756.72;5277514;28;20123;-73
2023/04/15 08:19:34;;;;;;;8.25;7.40;;;;;;;-145.79;58.10;77746.09;5276430;28;20021;-73
2023/04/15 08:22:06;;;;;;;9.77;8.75;;;;;;;-145.79;57.31;77750.34;5264948;28;20044;-73
2023/04/15 08:24:37;;;;;;;9.73;7.57;;;;;;;-145.79;56.98;77758.81;5277297;28;20031;-75
2023/04/15 08:27:09;;;;;;;7.03;6.32;;;;;;;-145.79;56.90;77756.72;5265608;28;20025;-75
2023/04/15 08:29:40;;;;;;;7.78;7.05;;;;;;;-145.79;56.93;77750.34;5258184;28;20025;-74
2023/04/15 08:32:11;;;;;;;9.82;7.03;;;;;;;-145.79;56.58;77739.75;5272000;28;20020;-72
2023/04/15 08:34:43;;;;;;;8.60;7.80;;;;;;;-145.79;55.53;77746.09;5251873;28;20079;-73
2023/04/15 08:37:14;;;;;;;10.30;7.40;;;;;;;-145.79;56.02;77741.88;5264045;28;20028;-73
2023/04/15 08:39:45;;;;;;;7.80;6.30;;;;;;;-145.79;55.96;77727.03;5249278;28;20029;-74
2023/04/15 08:42:22;;;;;;;8.73;7.03;;;;;;;-145.79;55.63;77722.78;5243223;28;20025;-74
2023/04/15 08:44:54;;;;;;;12.05;8.23;;;;;;;-145.79;54.93;77722.78;5242622;28;20021;-74
2023/04/15 08:47:29;;;;;;;7.10;6.13;;;;;;;-145.79;53.65;77712.19;5250349;28;20013;-71
2023/04/15 08:50:03;;;;;;;7.45;5.70;;;;;;;-145.79;53.00;77710.06;5264123;28;20032;-72
2023/04/15 08:52:43;;;;;;;8.13;5.80;;;;;;;-145.79;53.38;77712.19;5263228;28;20499;-74
2023/04/15 08:55:15;;;;;;;6.57;5.80;;;;;;;-145.79;52.79;77703.72;5263513;28;20105;-72
2023/04/15 08:57:47;;;;;;;7.28;6.18;;;;;;;-145.79;53.17;77691.00;5254271;28;20487;-74
2023/04/15 09:00:18;;;;;;;6.88;4.22;;;;;;;-145.79;53.47;77676.16;5259350;28;20025;-75
2023/04/15 09:02:50;;;;;;;6.40;4.53;;;;;;;-145.79;53.38;77676.16;5262716;28;20479;-74
2023/04/15 09:05:21;;;;;;;6.00;5.20;;;;;;;-145.79;52.21;77676.16;5263022;28;20021;-73
2023/04/15 09:07:53;;;;;;;6.22;5.30;;;;;;;-145.79;52.10;77661.31;5259737;28;20013;-75
2023/04/15 09:10:24;;;;;;;6.07;5.43;;;;;;;-145.79;51.54;77657.06;5251177;28;20029;-75
2023/04/15 09:12:56;;;;;;;6.63;5.28;;;;;;;-145.79;52.23;77644.34;5262920;28;20053;-75
2023/04/15 09:15:28;;;;;;;7.25;4.75;;;;;;;-145.79;49.90;77661.31;5263009;28;20025;-75
2023/04/15 09:18:00;;;;;;;5.05;4.07;;;;;;;-145.79;52.79;77650.72;5263462;28;20024;-76
2023/04/15 09:20:39;;;;;;;6.03;4.95;;;;;;;-145.79;49.36;77669.78;5262375;28;20028;-75
2023/04/15 09:23:12;;;;;;;6.65;4.43;;;;;;;-145.79;49.29;77665.56;5240944;28;20121;-76
2023/04/15 09:25:44;;;;;;;11.45;9.27;;;;;;;-145.79;53.30;77654.97;5240962;28;20021;-74
2023/04/15 09:28:23;;;;;;;5.53;4.88;;;;;;;-145.79;52.33;77646.47;5247005;28;20345;-75
2023/04/15 09:30:56;;;;;;;6.20;4.70;;;;;;;-145.79;50.20;77644.34;5261663;28;20040;-74
2023/04/15 09:33:29;;;;;;;5.28;4.57;;;;;;;-145.79;50.45;77667.69;5254830;28;20017;-76
2023/04/15 09:36:04;;;;;;;10.23;7.15;;;;;;;-145.79;48.64;77659.19;5245302;28;20030;-76
2023/04/15 09:38:54;;;;;;;7.03;5.45;;;;;;;-145.79;49.81;77657.06;5249211;28;20037;-73
2023/04/15 09:41:25;;;;;;;6.43;4.65;;;;;;;-145.79;48.87;77654.97;5240837;28;20028;-74
2023/04/15 09:43:57;;;;;;;6.20;4.47;;;;;;;-145.79;48.54;77665.56;5241896;28;20433;-75
2023/04/15 09:46:44;;;;;;;5.93;4.18;;;;;;;-145.79;48.42;77648.59;5241548;28;20158;-76
2023/04/15 09:49:16;;;;;;;5.22;4.70;;;;;;;-145.79;48.45;77646.47;5241153;28;20040;-74
2023/04/15 09:51:48;;;;;;;6.90;4.13;;;;;;;-145.79;48.41;77650.72;5251259;28;20021;-74
2023/04/15 09:54:20;;;;;;;6.13;4.45;;;;;;;-145.79;48.77;77644.34;5261450;28;20479;-72
2023/04/15 09:56:55;;;;;;;6.30;4.40;;;;;;;-145.79;48.41;77638.00;5259720;28;20028;-72
2023/04/15 09:59:26;;;;;;;5.70;4.05;;;;;;;-145.79;47.41;77640.13;5265463;28;20025;-70
2023/04/15 10:01:58;;;;;;;6.68;6.05;;;;;;;-145.79;48.39;77627.41;5260225;28;20124;-70
2023/04/15 10:04:33;;;;;;;4.47;3.38;;;;;;;-145.79;48.85;77635.88;5256943;28;20108;-69
2023/04/15 10:07:06;;;;;;;;;;;;;;;-145.79;48.05;77612.56;5258811;28;20036;-69
2023/04/15 10:09:38;;;;;;;4.45;3.45;;;;;;;-145.79;48.27;77616.81;5255570;28;19944;-69
2023/04/15 10:12:10;;;;;;;5.75;4.20;;;;;;;-145.79;48.41;77631.63;5257252;28;20159;-70
2023/04/15 10:14:43;;;;;;;4.57;4.18;;;;;;;-145.79;48.39;77623.16;5253037;28;20021;-70
2023/04/15 10:17:17;;;;;;;11.65;9.63;;;;;;;-145.79;48.57;77642.25;5258182;28;20591;-72
2023/04/15 10:19:49;;;;;;;5.50;3.85;;;;;;;-145.79;48.31;77631.63;5253473;28;20040;-71
2023/04/15 10:22:26;;;;;;;5.60;4.20;;;;;;;-145.79;48.25;77618.91;5256125;28;20052;-70
2023/04/15 10:24:58;;;;;;;4.57;4.18;;;;;;;-145.79;47.72;77629.53;5258176;28;20021;-72
2023/04/15 10:27:35;;;;;;;3.72;3.42;;;;;;;-145.79;49.90;77610.44;5254615;28;20028;-70
2023/04/15 10:30:08;;;;;;;5.03;4.07;;;;;;;-145.79;46.73;77610.44;5263348;28;20178;-69
2023/04/15 10:32:40;;;;;;;4.15;3.53;;;;;;;-145.79;47.84;77601.97;5257622;28;20469;-69
2023/04/15 10:35:12;;;;;;;7.15;3.78;;;;;;;-145.79;46.31;77601.97;5257086;28;20116;-70
2023/04/15 10:37:44;;;;;;;4.68;3.67;;;;;;;-145.79;46.34;77585.00;5255600;28;20029;-71
2023/04/15 10:40:27;;;;;;;11.73;10.05;;;;;;;-145.79;45.74;77595.59;5254876;28;20048;-71
2023/04/15 10:43:00;;;;;;;7.55;5.63;;;;;;;-145.79;44.60;77601.97;5259595;28;20029;-71
2023/04/15 10:45:35;;;;;;;4.13;3.22;;;;;;;-145.79;44.79;77593.47;5258133;28;20021;-71
2023/04/15 10:48:07;;;;;;;6.75;4.10;;;;;;;-145.79;44.74;77576.53;5259913;28;20025;-70
2023/04/15 10:50:39;;;;;;;3.67;2.70;;;;;;;-145.79;46.07;77574.41;5259602;28;20102;-70
2023/04/15 10:53:10;;;;;;;4.22;3.53;;;;;;;-145.79;44.70;77572.28;5255856;28;20016;-68
2023/04/15 10:55:42;;;;;;;4.55;3.22;;;;;;;-145.79;45.01;77578.66;5259774;28;20175;-69
2023/04/15 10:58:14;;;;;;;4.22;3.25;;;;;;;-145.79;45.20;77568.03;5259205;28;20435;-70
2023/04/15 11:00:52;;;;;;;3.78;3.10;;;;;;;-145.79;45.46;77576.53;5259958;28;20025;-69
2023/04/15 11:03:37;;;;;;;4.30;3.83;;;;;;;-145.79;45.95;77572.28;5257234;28;20857;-70
2023/04/15 11:06:09;;;;;;;5.15;4.65;;;;;;;-145.79;45.67;77559.56;5257346;28;20021;-69
2023/04/15 11:08:58;;;;;;;4.72;3.45;;;;;;;-145.79;45.56;77542.59;5259973;28;20021;-68
2023/04/15 11:12:09;;;;;;;5.35;3.42;;;;;;;-145.79;43.79;77557.44;5257624;28;20079;-70
2023/04/15 11:14:42;;;;;;;3.45;2.95;;;;;;;-145.79;42.96;77561.69;5241384;28;20054;-70
2023/04/15 11:17:14;;;;;;;5.45;2.60;;;;;;;-145.79;42.65;77572.28;5264385;28;20032;-70
2023/04/15 11:19:45;;;;;;;3.70;2.70;;;;;;;-145.79;42.65;77580.75;5256467;28;20115;-71
2023/04/15 11:22:17;;;;;;;2.72;2.40;;;;;;;-145.79;42.92;77568.03;5258820;28;20075;-71
2023/04/15 11:24:49;;;;;;;4.60;2.70;;;;;;;-145.79;42.81;77544.72;5262941;28;20503;-71
2023/04/15 11:27:23;;;;;;;3.28;2.97;;;;;;;-145.79;43.52;77548.97;5257785;28;20021;-72
2023/04/15 11:29:55;;;;;;;5.00;3.90;;;;;;;-145.79;43.16;77529.88;5248761;28;20033;-71
2023/04/15 11:32:26;;;;;;;4.20;2.90;;;;;;;-145.79;42.84;77540.50;5244698;28;20058;-71
2023/04/15 11:34:57;;;;;;;3.30;2.88;;;;;;;-145.79;43.64;77536.25;5260851;28;20028;-70
2023/04/15 11:37:29;;;;;;;6.05;4.38;;;;;;;-145.79;43.98;77553.22;5259645;28;20067;-70
2023/04/15 11:40:02;;;;;;;5.35;4.85;;;;;;;-145.79;43.76;77527.78;5253945;28;20025;-69
2023/04/15 11:42:33;;;;;;;6.28;3.13;;;;;;;-145.79;44.18;77512.94;5258219;28;20028;-69
2023/04/15 11:45:10;;;;;;;4.32;3.80;;;;;;;-145.79;44.61;77500.22;5257221;28;20416;-70
2023/04/15 11:47:41;;;;;;;4.53;3.63;;;;;;;-145.79;44.31;77495.97;5258791;28;20088;-73
2023/04/15 11:50:20;;;;;;;2.90;2.53;;;;;;;-145.79;43.56;77506.56;5259852;28;20036;-71
2023/04/15 11:52:55;;;;;;;3.25;2.25;;;;;;;-145.79;43.55;77500.22;5256592;28;20036;-68
2023/04/15 11:55:27;;;;;;;;;;;;;;;-145.79;43.88;77479.03;5256843;28;20086;-72
2023/04/15 11:58:07;;;;;;;6.97;3.30;;;;;;;-145.79;44.31;77498.09;5241516;28;19920;-72
2023/04/15 12:00:40;;;;;;;4.43;3.15;;;;;;;-145.79;43.95;77517.16;5259367;28;20377;-69
2023/04/15 12:03:18;;;;;;;3.75;3.35;;;;;;;-145.79;43.72;77534.13;5253908;28;20119;-69
2023/04/15 12:06:15;;;;;;;4.82;4.07;;;;;;;-145.79;44.49;77534.13;5257036;28;20041;-72
2023/04/15 12:08:57;;;;;;;3.30;3.00;;;;;;;-145.79;45.27;77529.88;5259715;28;20060;-75
2023/04/15 12:11:42;;;;;;;4.45;2.70;;;;;;;-145.79;45.56;77559.56;5256251;28;20083;-76
2023/04/15 12:14:16;;;;;;;5.95;2.83;;;;;;;-145.79;44.68;77557.44;5252036;28;20947;-73
2023/04/15 12:16:50;;;;;;;12.95;11.38;;;;;;;-145.79;44.90;77538.38;5256032;28;20025;-76
2023/04/15 12:19:26;;;;;;;3.97;2.70;;;;;;;-145.79;44.04;77508.69;5258005;28;20383;-76
2023/04/15 12:22:01;;;;;;;;;;;;;;;-145.79;43.91;77476.91;5262528;28;20044;-77
2023/04/15 12:24:34;;;;;;;3.30;3.00;;;;;;;-145.79;43.62;77479.03;5258145;28;19929;-76
2023/04/15 12:27:07;;;;;;;6.57;3.60;;;;;;;-145.79;44.45;77466.31;5252300;28;20037;-76
2023/04/15 12:29:41;;;;;;;3.67;2.80;;;;;;;-145.79;44.15;77466.31;5257098;28;20017;-74
2023/04/15 12:32:15;;;;;;;4.78;3.00;;;;;;;-145.79;44.07;77470.53;5247037;28;20072;-74
2023/04/15 12:34:51;;;;;;;6.60;2.70;;;;;;;-145.79;44.01;77457.81;5261207;28;20032;-75
2023/04/15 12:37:22;;;;;;;3.75;2.65;;;;;;;-145.79;43.07;77442.97;5261645;28;20029;-74
2023/04/15 12:39:54;;;;;;;4.32;2.97;;;;;;;-145.79;43.29;77498.09;5258292;28;20546;-74
2023/04/15 12:42:26;;;;;;;3.65;2.55;;;;;;;-145.79;43.12;77502.34;5262634;28;20086;-74
2023/04/15 12:44:57;;;;;;;3.40;3.10;;;;;;;-145.79;42.12;77493.84;5262143;28;20442;-75
2023/04/15 12:47:29;;;;;;;9.98;6.32;;;;;;;-145.79;42.30;77506.56;5262865;28;20131;-75
2023/04/15 12:50:00;;;;;;;3.80;2.90;;;;;;;-145.79;42.08;77472.66;5262722;28;20075;-76
2023/04/15 12:52:31;;;;;;;4.40;2.30;;;;;;;-145.79;41.57;77457.81;5261832;28;20087;-76
2023/04/15 12:55:03;;;;;;;3.25;2.75;;;;;;;-145.79;41.96;77464.19;5259932;28;20025;-76
2023/04/15 12:57:34;;;;;;;10.57;8.20;;;;;;;-145.79;41.96;77447.22;5258866;28;20111;-74
2023/04/15 13:00:07;;;;;;;5.70;5.15;;;;;;;-145.79;41.50;77434.50;5261233;28;20092;-75
2023/04/15 13:02:38;;;;;;;2.88;2.10;;;;;;;-145.79;41.40;77434.50;5252238;28;20490;-74
2023/04/15 13:05:09;;;;;;;2.45;2.25;;;;;;;-145.79;40.94;77430.25;5262003;28;20029;-75
2023/04/15 13:07:41;;;;;;;3.55;3.25;;;;;;;-145.79;40.50;77417.53;5250749;28;20056;-75
2023/04/15 13:10:12;;;;;;;3.53;2.70;;;;;;;-145.79;40.48;77436.63;5263368;28;20124;-75
2023/04/15 13:12:45;;;;;;;2.55;2.30;;;;;;;-145.79;41.02;77413.31;5254216;28;20024;-75
2023/04/15 13:15:19;;;;;;;2.40;2.20;;;;;;;-145.79;40.29;77398.47;5243669;28;20025;-75
2023/04/15 13:17:50;;;;;;;3.47;2.55;;;;;;;-145.79;40.27;77430.25;5242049;28;20017;-75
2023/04/15 13:20:22;;;;;;;3.25;2.10;;;;;;;-145.79;40.28;77449.34;5254618;28;20483;-73
2023/04/15 13:22:53;;;;;;;2.05;1.85;;;;;;;-145.79;40.25;77423.91;5260813;28;20049;-75
2023/04/15 13:25:25;;;;;;;3.20;2.67;;;;;;;-145.79;40.28;77449.34;5250679;28;20515;-74
2023/04/15 13:27:57;;;;;;;13.10;11.25;;;;;;;-145.79;40.85;77445.09;5239648;28;20152;-76
2023/04/15 13:30:28;;;;;;;3.55;2.60;;;;;;;-145.79;40.71;77436.63;5240755;28;20140;-75
2023/04/15 13:33:00;;;;;;;3.80;2.72;;;;;;;-145.79;40.45;77415.44;5240296;28;20043;-74
2023/04/15 13:35:31;;;;;;;2.50;1.90;;;;;;;-145.79;40.67;77402.72;5242509;28;20468;-76
2023/04/15 13:38:03;;;;;;;2.60;2.10;;;;;;;-145.79;40.90;77436.63;5255947;28;20103;-77
2023/04/15 13:40:34;;;;;;;3.20;2.47;;;;;;;-145.79;41.40;77442.97;5262394;28;20025;-75
2023/04/15 13:43:05;;;;;;;6.90;5.63;;;;;;;-145.79;41.52;77438.75;5263057;28;20496;-75
2023/04/15 13:45:37;;;;;;;2.85;2.40;;;;;;;-145.79;41.39;77440.88;5263390;28;20456;-75
2023/04/15 13:48:09;;;;;;;2.63;2.17;;;;;;;-145.79;41.59;77409.06;5261932;28;20056;-77
2023/04/15 13:50:44;;;;;;;3.80;2.28;;;;;;;-145.79;41.19;77383.63;5262868;28;20421;-75
2023/04/15 13:53:15;;;;;;;4.18;2.35;;;;;;;-145.79;40.62;77373.03;5262442;28;20029;-76
2023/04/15 13:55:47;;;;;;;3.80;2.35;;;;;;;-145.79;40.87;77398.47;5262104;28;20033;-76
2023/04/15 13:58:18;;;;;;;2.42;1.88;;;;;;;-145.79;40.18;77419.66;5258294;28;20029;-76
2023/04/15 14:00:49;;;;;;;3.20;2.78;;;;;;;-145.79;40.29;77406.94;5246456;28;20058;-74
2023/04/15 14:03:22;;;;;;;5.18;2.38;;;;;;;-145.79;40.31;77390.00;5255648;28;20368;-75
2023/04/15 14:05:55;;;;;;;2.88;2.33;;;;;;;-145.79;40.34;77390.00;5261674;28;20083;-75
2023/04/15 14:08:26;;;;;;;2.65;2.17;;;;;;;-145.79;40.73;77368.78;5261046;28;20369;-75
2023/04/15 14:10:57;;;;;;;6.05;2.13;;;;;;;-145.79;40.28;77334.88;5261979;28;20036;-75
2023/04/15 14:13:29;;;;;;;5.05;3.05;;;;;;;-145.79;40.67;77394.22;5258362;28;20021;-75
2023/04/15 14:16:00;;;;;;;3.03;1.80;;;;;;;-145.79;41.20;77411.19;5252617;28;20387;-76
2023/04/15 14:18:32;;;;;;;19.30;17.25;;;;;;;-145.79;41.20;77464.19;5259655;28;20017;-78
2023/04/15 14:21:06;;;;;;;5.55;2.00;;;;;;;-145.79;41.67;77466.31;5250662;28;20111;-77
2023/04/15 14:23:37;;;;;;;2.25;2.05;;;;;;;-145.79;41.45;77481.13;5261884;28;20033;-77
2023/04/15 14:26:09;;;;;;;4.85;1.90;;;;;;;-145.79;41.66;77495.97;5262448;28;20036;-75
2023/04/15 14:28:41;;;;;;;2.90;1.77;;;;;;;-145.79;42.24;77519.28;5254690;28;20101;-74
2023/04/15 14:31:13;;;;;;;2.38;1.98;;;;;;;-145.79;42.08;77542.59;5240070;28;20033;-76
2023/04/15 14:33:45;;;;;;;2.42;1.50;;;;;;;-145.79;42.09;77517.16;5241180;28;20037;-77
2023/04/15 14:36:16;;;;;;;2.75;1.50;;;;;;;-145.79;40.94;77500.22;5239581;28;20030;-76
2023/04/15 14:38:47;;;;;;;8.02;5.25;;;;;;;-145.79;40.42;77487.50;5243150;28;20025;-77
2023/04/15 14:41:19;;;;;;;10.60;9.15;;;;;;;-145.79;40.37;77459.94;5245513;28;20087;-77
2023/04/15 14:43:53;;;;;;;2.35;1.45;;;;;;;-145.79;40.22;77459.94;5260635;28;20033;-76
2023/04/15 14:46:25;;;;;;;2.97;1.42;;;;;;;-145.79;40.12;77453.59;5261646;28;20021;-74
2023/04/15 14:48:57;;;;;;;2.53;1.38;;;;;;;-145.79;39.92;77479.03;5261800;28;20021;-75
2023/04/15 14:51:28;;;;;;;1.60;1.30;;;;;;;-145.79;40.44;77500.22;5261607;28;20037;-76
2023/04/15 14:53:59;;;;;;;3.17;1.73;;;;;;;-145.79;40.07;77506.56;5261384;28;20047;-74
2023/04/15 14:56:31;;;;;;;5.00;3.45;;;;;;;-145.79;40.56;77529.88;5259462;28;20040;-74
2023/04/15 14:59:05;;;;;;;2.55;1.67;;;;;;;-145.79;40.49;77525.66;5259953;28;20112;-76
2023/04/15 15:01:36;;;;;;;2.83;1.40;;;;;;;-145.79;40.92;77538.38;5256031;28;20021;-76
2023/04/15 15:04:09;;;;;;;3.13;2.78;;;;;;;-145.79;40.67;77517.16;5239981;28;20096;-76
2023/04/15 15:06:41;;;;;;;4.10;2.80;;;;;;;-145.79;41.21;77491.75;5256743;28;20085;-76
2023/04/15 15:09:12;;;;;;;3.25;1.90;;;;;;;-145.79;42.20;77544.72;5260718;28;20052;-77
2023/04/15 15:11:43;;;;;;;4.45;2.08;;;;;;;-145.79;42.93;77576.53;5257090;28;20033;-76
2023/04/15 15:14:15;;;;;;;3.55;1.80;;;;;;;-145.79;42.30;77606.19;5257296;28;20028;-74
2023/04/15 15:16:46;;;;;;;1.60;1.33;;;;;;;-145.79;42.16;77629.53;5257855;28;20029;-74
2023/04/15 15:19:17;;;;;;;4.95;1.70;;;;;;;-145.79;42.56;77610.44;5257116;28;20582;-76
2023/04/15 15:21:49;;;;;;;2.35;1.65;;;;;;;-145.79;42.70;77640.13;5257214;28;20111;-75
2023/04/15 15:24:21;;;;;;;2.85;1.40;;;;;;;-145.79;43.40;77644.34;5258604;28;20044;-74
2023/04/15 15:26:52;;;;;;;1.73;1.40;;;;;;;-145.79;43.17;77652.84;5258992;28;20075;-74
2023/04/15 15:29:23;;;;;;;3.38;3.00;;;;;;;-145.79;42.48;77631.63;5259368;28;20060;-74
2023/04/15 15:31:54;;;;;;;3.28;1.40;;;;;;;-145.79;42.65;77627.41;5259307;28;20056;-73
2023/04/15 15:34:26;;;;;;;3.65;2.13;;;;;;;-145.79;42.08;77642.25;5258742;28;20029;-73
2023/04/15 15:36:57;;;;;;;2.45;1.27;;;;;;;-145.79;42.52;77669.78;5260050;28;20025;-73
2023/04/15 15:39:28;;;;;;;2.70;1.40;;;;;;;-145.79;43.24;77682.50;5259317;28;20025;-75
2023/04/15 15:42:00;;;;;;;4.10;1.52;;;;;;;-145.79;43.92;77712.19;5260335;28;20102;-75
2023/04/15 15:44:32;;;;;;;4.35;1.33;;;;;;;-145.79;44.04;77710.06;5264271;28;20106;-76
2023/04/15 15:47:04;;;;;;;1.90;1.63;;;;;;;-145.79;44.18;77750.34;5264573;28;20465;-75
2023/04/15 15:49:35;;;;;;;1.80;1.30;;;;;;;-145.79;43.70;77754.59;5265178;28;20044;-75
2023/04/15 15:52:07;;;;;;;2.22;1.20;;;;;;;-145.79;43.76;77752.47;5264974;28;20048;-75
2023/04/15 15:54:40;;;;;;;2.58;1.75;;;;;;;-145.79;43.81;77735.50;5264446;28;20117;-75
2023/04/15 15:57:11;;;;;;;5.00;1.50;;;;;;;-145.79;44.47;77756.72;5265246;28;20199;-76
2023/04/15 15:59:42;;;;;;;21.58;17.95;;;;;;;-145.79;44.37;77767.31;5264810;28;20101;-75
2023/04/15 16:02:14;;;;;;;3.47;1.92;;;;;;;-145.79;44.62;77758.81;5264486;28;20387;-74
2023/04/15 16:04:45;;;;;;;2.13;1.50;;;;;;;-145.79;45.45;77765.19;5247654;28;20037;-74
2023/04/15 16:07:17;;;;;;;2.05;1.70;;;;;;;-145.79;44.96;77805.47;5243792;28;20022;-75
2023/04/15 16:09:48;;;;;;;2.22;1.10;;;;;;;-145.79;45.51;77807.59;5253990;28;20076;-75
2023/04/15 16:12:19;;;;;;;2.75;1.50;;;;;;;-145.79;46.14;77835.13;5265048;28;20025;-74
2023/04/15 16:14:51;;;;;;;2.05;1.40;;;;;;;-145.79;47.09;77860.56;5264445;28;20025;-73
2023/04/15 16:17:22;;;;;;;2.63;1.50;;;;;;;-145.79;46.84;77877.53;5264652;28;20109;-74
2023/04/15 16:19:53;;;;;;;2.00;1.30;;;;;;;-145.79;46.44;77881.78;5264588;28;20028;-75
2023/04/15 16:22:25;;;;;;;2.38;1.35;;;;;;;-145.79;46.24;77890.25;5263598;28;20049;-74
2023/04/15 16:24:57;;;;;;;1.67;1.20;;;;;;;-145.79;46.83;77907.22;5264345;28;20431;-75
2023/04/15 16:27:29;;;;;;;4.40;2.88;;;;;;;-145.79;47.08;77898.75;5272948;28;20028;-75
2023/04/15 16:30:00;;;;;;;3.75;1.33;;;;;;;-145.79;47.86;77932.66;5285233;28;20031;-74
2023/04/15 16:32:32;;;;;;;7.80;6.10;;;;;;;-145.79;47.86;77928.41;5285639;28;20056;-74
2023/04/15 16:35:03;;;;;;;3.08;1.55;;;;;;;-145.79;47.86;77953.84;5285709;28;20029;-74
2023/04/15 16:37:35;;;;;;;5.75;2.50;;;;;;;-145.79;47.87;77962.34;5284739;28;20108;-74
2023/04/15 16:40:09;;;;;;;2.90;1.15;;;;;;;-145.79;47.94;77966.56;5284288;28;20032;-74
2023/04/15 16:42:42;;;;;;;5.80;1.90;;;;;;;-145.79;47.69;77964.47;5283127;28;20029;-74
2023/04/15 16:45:13;;;;;;;3.35;1.40;;;;;;;-145.79;48.10;77981.41;5263945;28;20104;-74
2023/04/15 16:47:45;;;;;;;7.00;1.85;;;;;;;-145.79;49.38;78002.63;5264163;28;20113;-74
2023/04/15 16:50:16;;;;;;;4.68;1.38;;;;;;;-145.79;49.08;78017.44;5263442;28;20040;-74
2023/04/15 16:52:47;;;;;;;3.03;1.40;;;;;;;-145.79;48.88;78021.69;5266019;28;20092;-74
2023/04/15 16:55:19;;;;;;;2.78;1.38;;;;;;;-145.79;49.46;78017.44;5284723;28;20037;-74
